Accueil
METAR-TAF:

METAR-TAF

Aéroports :

Aéroport de Toulon-Hyères

Toulon, France

latitude: 43-06N, longitude: 006-09E, altitude: 3 m

Observation

Le bulletin a été fait il y a 26 minutes, à 22:30 UTC
Vent 2 kt de direction variable
Température 7°C
Humidité 81%
Pression 1023 hPa
Visibilité 10 km ou plus
Quelques nuages à une hauteur de 4100 ft

METAR: LFTH 242230Z AUTO VRB02KT 9999 FEW041 07/04 Q1023 NOSIG

Heure: 23:56 (22:56 UTC)

Prévision

Le bulletin a été fait il y a 2 heures et 56 minutes, à 20:00 UTC
Prévision valable du 24 à 21 UTC au 25 à 21 UTC
Vent 2 kt de direction variable
Visibilité 10 km ou plus
pas de nuages en-dessous de 1500 mètres et pas de cumulonimbus.
Evoluant progressivement
du 25 à 10 UTC au 25 à 12 UTC
Vent 12 kt de est
Evoluant progressivement
du 25 à 16 UTC au 25 à 18 UTC
Vent 8 kt de nord-est

TAF: LFTH 242000Z 2421/2521 VRB02KT CAVOK BECMG 2510/2512 10012KT BECMG 2516/2518 04008KT

Observations et prévisions météorologiques de plus de 4000 aéroports (messages METAR et TAF).

Les stations disponibles sont représentées par des disques jaunes et rouges sur la carte.

Passer la souris dessus pour voir le nom de la station.

Cliquer dessus pour voir les observations et prévisions météorologiques.

Pour changer de carte: cliquez sur les boutons verts avec une croix noire pour zoomer, sur le bouton vert avec un tiret pour effectuer un zoom arrière, ou sur les flèches vertes pour les cartes adjacentes.


METAR-TAF: